sensor_id;sensor_type;location;lat;lon;timestamp;pressure;altitude;pressure_sealevel;temperature;humidity
61357;BME280;47227;46.752;23.576;2022-07-23T00:01:48;96450.37;;;20.34;39.48
61357;BME280;47227;46.752;23.576;2022-07-23T00:04:25;96448.81;;;20.30;39.60
61357;BME280;47227;46.752;23.576;2022-07-23T00:06:53;96453.96;;;20.26;40.02
61357;BME280;47227;46.752;23.576;2022-07-23T00:09:22;96454.28;;;20.20;40.37
61357;BME280;47227;46.752;23.576;2022-07-23T00:11:50;96457.92;;;20.13;40.58
61357;BME280;47227;46.752;23.576;2022-07-23T00:14:18;96457.05;;;20.07;40.44
61357;BME280;47227;46.752;23.576;2022-07-23T00:16:50;96460.98;;;20.02;40.51
61357;BME280;47227;46.752;23.576;2022-07-23T00:19:19;96462.09;;;19.99;40.52
61357;BME280;47227;46.752;23.576;2022-07-23T00:21:47;96464.35;;;19.95;40.56
61357;BME280;47227;46.752;23.576;2022-07-23T00:24:16;96470.27;;;19.93;40.83
61357;BME280;47227;46.752;23.576;2022-07-23T00:26:44;96472.79;;;19.92;40.84
61357;BME280;47227;46.752;23.576;2022-07-23T00:29:13;96471.50;;;19.92;40.78
61357;BME280;47227;46.752;23.576;2022-07-23T00:31:41;96472.42;;;19.94;40.74
61357;BME280;47227;46.752;23.576;2022-07-23T00:34:17;96473.98;;;19.98;40.85
61357;BME280;47227;46.752;23.576;2022-07-23T00:36:45;96471.95;;;20.02;40.74
61357;BME280;47227;46.752;23.576;2022-07-23T00:39:14;96474.58;;;20.06;40.68
61357;BME280;47227;46.752;23.576;2022-07-23T00:41:42;96477.79;;;20.08;40.82
61357;BME280;47227;46.752;23.576;2022-07-23T00:44:16;96475.20;;;20.07;40.73
61357;BME280;47227;46.752;23.576;2022-07-23T00:46:48;96473.28;;;20.03;40.57
61357;BME280;47227;46.752;23.576;2022-07-23T00:49:16;96467.98;;;19.98;40.77
61357;BME280;47227;46.752;23.576;2022-07-23T00:51:44;96470.09;;;19.91;40.70
61357;BME280;47227;46.752;23.576;2022-07-23T00:54:13;96462.80;;;19.84;40.81
61357;BME280;47227;46.752;23.576;2022-07-23T00:56:44;96462.98;;;19.79;40.79
61357;BME280;47227;46.752;23.576;2022-07-23T00:59:14;96462.09;;;19.73;41.00
61357;BME280;47227;46.752;23.576;2022-07-23T01:01:42;96459.70;;;19.67;41.18
61357;BME280;47227;46.752;23.576;2022-07-23T01:04:12;96456.92;;;19.60;41.47
61357;BME280;47227;46.752;23.576;2022-07-23T01:06:45;96456.45;;;19.55;41.61
61357;BME280;47227;46.752;23.576;2022-07-23T01:09:14;96453.73;;;19.49;41.76
61357;BME280;47227;46.752;23.576;2022-07-23T01:12:03;96456.45;;;19.46;41.87
61357;BME280;47227;46.752;23.576;2022-07-23T01:14:33;96456.76;;;19.43;41.96
61357;BME280;47227;46.752;23.576;2022-07-23T01:17:01;96456.13;;;19.41;42.12
61357;BME280;47227;46.752;23.576;2022-07-23T01:19:31;96453.54;;;19.40;42.01
61357;BME280;47227;46.752;23.576;2022-07-23T01:22:03;96447.53;;;19.39;42.27
61357;BME280;47227;46.752;23.576;2022-07-23T01:24:34;96441.06;;;19.39;41.98
61357;BME280;47227;46.752;23.576;2022-07-23T01:27:05;96437.30;;;19.38;41.94
61357;BME280;47227;46.752;23.576;2022-07-23T01:29:39;96429.89;;;19.36;42.03
61357;BME280;47227;46.752;23.576;2022-07-23T01:32:19;96425.93;;;19.35;42.01
61357;BME280;47227;46.752;23.576;2022-07-23T01:34:48;96427.16;;;19.32;42.12
61357;BME280;47227;46.752;23.576;2022-07-23T01:37:17;96428.48;;;19.28;42.83
61357;BME280;47227;46.752;23.576;2022-07-23T01:39:45;96426.02;;;19.24;42.72
61357;BME280;47227;46.752;23.576;2022-07-23T01:42:16;96426.20;;;19.20;42.76
61357;BME280;47227;46.752;23.576;2022-07-23T01:44:46;96429.27;;;19.16;42.95
61357;BME280;47227;46.752;23.576;2022-07-23T01:47:22;96428.83;;;19.14;42.80
61357;BME280;47227;46.752;23.576;2022-07-23T01:49:54;96428.53;;;19.12;43.02
61357;BME280;47227;46.752;23.576;2022-07-23T01:52:36;96431.26;;;19.12;43.09
61357;BME280;47227;46.752;23.576;2022-07-23T01:55:06;96432.31;;;19.12;43.05
61357;BME280;47227;46.752;23.576;2022-07-23T01:57:46;96428.29;;;19.12;43.04
61357;BME280;47227;46.752;23.576;2022-07-23T02:00:18;96429.86;;;19.10;43.00
61357;BME280;47227;46.752;23.576;2022-07-23T02:02:47;96433.41;;;19.09;42.99
61357;BME280;47227;46.752;23.576;2022-07-23T02:05:16;96431.32;;;19.06;43.00
61357;BME280;47227;46.752;23.576;2022-07-23T02:07:45;96430.48;;;19.04;43.03
61357;BME280;47227;46.752;23.576;2022-07-23T02:10:15;96428.64;;;19.00;43.16
61357;BME280;47227;46.752;23.576;2022-07-23T02:12:44;96426.25;;;18.96;42.99
61357;BME280;47227;46.752;23.576;2022-07-23T02:15:18;96428.34;;;18.96;43.18
61357;BME280;47227;46.752;23.576;2022-07-23T02:17:49;96435.02;;;18.97;42.97
61357;BME280;47227;46.752;23.576;2022-07-23T02:20:18;96437.92;;;18.97;42.91
61357;BME280;47227;46.752;23.576;2022-07-23T02:22:46;96443.48;;;18.99;42.87
61357;BME280;47227;46.752;23.576;2022-07-23T02:25:15;96445.45;;;18.99;42.91
61357;BME280;47227;46.752;23.576;2022-07-23T02:27:43;96447.33;;;18.98;42.72
61357;BME280;47227;46.752;23.576;2022-07-23T02:30:15;96452.68;;;18.99;42.92
61357;BME280;47227;46.752;23.576;2022-07-23T02:32:44;96454.20;;;19.01;42.71
61357;BME280;47227;46.752;23.576;2022-07-23T02:35:12;96453.71;;;19.00;42.55
61357;BME280;47227;46.752;23.576;2022-07-23T02:37:41;96454.55;;;18.99;42.56
61357;BME280;47227;46.752;23.576;2022-07-23T02:40:10;96453.24;;;18.97;42.68
61357;BME280;47227;46.752;23.576;2022-07-23T02:42:39;96456.11;;;18.98;42.56
61357;BME280;47227;46.752;23.576;2022-07-23T02:45:10;96454.20;;;18.98;42.50
61357;BME280;47227;46.752;23.576;2022-07-23T02:47:41;96453.53;;;18.97;42.65
61357;BME280;47227;46.752;23.576;2022-07-23T02:50:10;96453.38;;;18.96;42.58
61357;BME280;47227;46.752;23.576;2022-07-23T02:52:40;96453.52;;;18.94;42.58
61357;BME280;47227;46.752;23.576;2022-07-23T02:55:09;96445.30;;;18.94;42.61
61357;BME280;47227;46.752;23.576;2022-07-23T02:57:44;96445.12;;;18.94;42.53
61357;BME280;47227;46.752;23.576;2022-07-23T03:00:12;96453.77;;;18.94;42.69
61357;BME280;47227;46.752;23.576;2022-07-23T03:02:41;96456.56;;;18.94;42.69
61357;BME280;47227;46.752;23.576;2022-07-23T03:05:09;96460.98;;;18.93;42.94
61357;BME280;47227;46.752;23.576;2022-07-23T03:07:38;96465.06;;;18.91;43.36
61357;BME280;47227;46.752;23.576;2022-07-23T03:10:07;96465.29;;;18.90;43.65
61357;BME280;47227;46.752;23.576;2022-07-23T03:12:36;96470.65;;;18.91;43.56
61357;BME280;47227;46.752;23.576;2022-07-23T03:15:05;96464.97;;;18.95;43.34
61357;BME280;47227;46.752;23.576;2022-07-23T03:17:35;96466.63;;;18.98;43.40
61357;BME280;47227;46.752;23.576;2022-07-23T03:20:05;96465.52;;;18.98;43.40
61357;BME280;47227;46.752;23.576;2022-07-23T03:22:33;96469.41;;;18.97;43.33
61357;BME280;47227;46.752;23.576;2022-07-23T03:25:04;96465.20;;;18.98;43.32
61357;BME280;47227;46.752;23.576;2022-07-23T03:27:35;96465.66;;;18.99;43.29
61357;BME280;47227;46.752;23.576;2022-07-23T03:30:04;96468.84;;;18.99;43.53
61357;BME280;47227;46.752;23.576;2022-07-23T03:32:34;96466.50;;;18.99;43.34
61357;BME280;47227;46.752;23.576;2022-07-23T03:35:03;96468.78;;;18.99;43.38
61357;BME280;47227;46.752;23.576;2022-07-23T03:37:34;96472.84;;;19.02;43.13
61357;BME280;47227;46.752;23.576;2022-07-23T03:40:03;96470.71;;;19.02;43.30
61357;BME280;47227;46.752;23.576;2022-07-23T03:42:32;96467.72;;;19.03;43.20
61357;BME280;47227;46.752;23.576;2022-07-23T03:45:03;96472.55;;;19.03;43.29
61357;BME280;47227;46.752;23.576;2022-07-23T03:47:33;96475.84;;;19.05;43.31
61357;BME280;47227;46.752;23.576;2022-07-23T03:50:03;96475.20;;;19.06;43.34
61357;BME280;47227;46.752;23.576;2022-07-23T03:52:35;96480.50;;;19.07;43.47
61357;BME280;47227;46.752;23.576;2022-07-23T03:55:04;96480.13;;;19.07;43.42
61357;BME280;47227;46.752;23.576;2022-07-23T03:57:33;96481.91;;;19.08;43.54
61357;BME280;47227;46.752;23.576;2022-07-23T04:00:03;96476.97;;;19.08;43.52
61357;BME280;47227;46.752;23.576;2022-07-23T04:02:40;96478.68;;;19.10;43.49
61357;BME280;47227;46.752;23.576;2022-07-23T04:05:09;96483.95;;;19.13;43.46
61357;BME280;47227;46.752;23.576;2022-07-23T04:07:38;96480.54;;;19.16;43.46
61357;BME280;47227;46.752;23.576;2022-07-23T04:10:08;96477.45;;;19.18;43.35
61357;BME280;47227;46.752;23.576;2022-07-23T04:12:36;96479.55;;;19.22;43.15
61357;BME280;47227;46.752;23.576;2022-07-23T04:15:07;96478.73;;;19.26;43.06
61357;BME280;47227;46.752;23.576;2022-07-23T04:17:36;96479.27;;;19.31;43.02
61357;BME280;47227;46.752;23.576;2022-07-23T04:20:05;96475.73;;;19.34;43.01
61357;BME280;47227;46.752;23.576;2022-07-23T04:22:38;96476.09;;;19.38;42.93
61357;BME280;47227;46.752;23.576;2022-07-23T04:25:07;96472.70;;;19.41;42.81
61357;BME280;47227;46.752;23.576;2022-07-23T04:27:36;96472.90;;;19.45;42.86
61357;BME280;47227;46.752;23.576;2022-07-23T04:30:04;96473.28;;;19.50;42.85
61357;BME280;47227;46.752;23.576;2022-07-23T04:32:33;96471.54;;;19.54;42.75
61357;BME280;47227;46.752;23.576;2022-07-23T04:35:03;96475.13;;;19.58;42.76
61357;BME280;47227;46.752;23.576;2022-07-23T04:37:31;96477.25;;;19.62;42.77
61357;BME280;47227;46.752;23.576;2022-07-23T04:40:00;96480.30;;;19.67;42.78
61357;BME280;47227;46.752;23.576;2022-07-23T04:42:29;96473.52;;;19.74;42.66
61357;BME280;47227;46.752;23.576;2022-07-23T04:44:57;96475.83;;;19.80;42.57
61357;BME280;47227;46.752;23.576;2022-07-23T04:47:26;96484.23;;;19.87;42.50
61357;BME280;47227;46.752;23.576;2022-07-23T04:49:56;96486.91;;;19.93;42.55
61357;BME280;47227;46.752;23.576;2022-07-23T04:52:25;96491.25;;;19.99;42.52
61357;BME280;47227;46.752;23.576;2022-07-23T04:54:54;96486.60;;;20.05;42.49
61357;BME280;47227;46.752;23.576;2022-07-23T04:57:22;96485.13;;;20.11;42.30
61357;BME280;47227;46.752;23.576;2022-07-23T04:59:50;96487.33;;;20.16;42.28
61357;BME280;47227;46.752;23.576;2022-07-23T05:02:20;96483.71;;;20.23;42.20
61357;BME280;47227;46.752;23.576;2022-07-23T05:04:49;96486.52;;;20.29;42.12
61357;BME280;47227;46.752;23.576;2022-07-23T05:07:17;96489.96;;;20.36;42.09
61357;BME280;47227;46.752;23.576;2022-07-23T05:09:46;96487.18;;;20.42;42.19
61357;BME280;47227;46.752;23.576;2022-07-23T05:12:14;96483.92;;;20.49;42.17
61357;BME280;47227;46.752;23.576;2022-07-23T05:14:43;96482.44;;;20.56;41.95
61357;BME280;47227;46.752;23.576;2022-07-23T05:17:11;96484.83;;;20.62;42.06
61357;BME280;47227;46.752;23.576;2022-07-23T05:19:41;96484.11;;;20.69;41.95
61357;BME280;47227;46.752;23.576;2022-07-23T05:22:09;96487.44;;;20.77;41.94
61357;BME280;47227;46.752;23.576;2022-07-23T05:24:38;96491.14;;;20.84;41.96
61357;BME280;47227;46.752;23.576;2022-07-23T05:27:07;96486.20;;;20.91;41.96
61357;BME280;47227;46.752;23.576;2022-07-23T05:29:36;96485.45;;;20.99;41.84
61357;BME280;47227;46.752;23.576;2022-07-23T05:32:04;96482.13;;;21.08;41.60
61357;BME280;47227;46.752;23.576;2022-07-23T05:34:33;96482.69;;;21.18;41.48
61357;BME280;47227;46.752;23.576;2022-07-23T05:37:02;96480.82;;;21.27;41.34
61357;BME280;47227;46.752;23.576;2022-07-23T05:39:30;96480.52;;;21.37;41.19
61357;BME280;47227;46.752;23.576;2022-07-23T05:41:58;96477.47;;;21.47;41.20
61357;BME280;47227;46.752;23.576;2022-07-23T05:44:28;96482.19;;;21.57;41.20
61357;BME280;47227;46.752;23.576;2022-07-23T05:47:01;96478.42;;;21.67;41.10
61357;BME280;47227;46.752;23.576;2022-07-23T05:49:30;96475.88;;;21.76;40.98
61357;BME280;47227;46.752;23.576;2022-07-23T05:52:18;96476.79;;;21.88;40.98
61357;BME280;47227;46.752;23.576;2022-07-23T05:55:02;96477.05;;;21.99;40.89
61357;BME280;47227;46.752;23.576;2022-07-23T05:57:32;96480.08;;;22.10;40.89
61357;BME280;47227;46.752;23.576;2022-07-23T06:00:08;96483.80;;;22.21;40.72
61357;BME280;47227;46.752;23.576;2022-07-23T06:02:43;96483.52;;;22.33;40.68
61357;BME280;47227;46.752;23.576;2022-07-23T06:05:14;96483.78;;;22.43;40.55
61357;BME280;47227;46.752;23.576;2022-07-23T06:07:47;96485.62;;;22.54;40.25
61357;BME280;47227;46.752;23.576;2022-07-23T06:10:16;96483.39;;;22.64;40.38
61357;BME280;47227;46.752;23.576;2022-07-23T06:12:45;96481.36;;;22.75;40.20
61357;BME280;47227;46.752;23.576;2022-07-23T06:15:16;96480.98;;;22.86;40.24
61357;BME280;47227;46.752;23.576;2022-07-23T06:17:52;96477.25;;;22.96;40.00
61357;BME280;47227;46.752;23.576;2022-07-23T06:20:20;96471.88;;;23.07;40.07
61357;BME280;47227;46.752;23.576;2022-07-23T06:22:49;96470.80;;;23.19;39.41
61357;BME280;47227;46.752;23.576;2022-07-23T06:25:18;96474.86;;;23.31;39.26
61357;BME280;47227;46.752;23.576;2022-07-23T06:27:50;96471.81;;;23.43;39.27
61357;BME280;47227;46.752;23.576;2022-07-23T06:30:18;96471.61;;;23.57;39.30
61357;BME280;47227;46.752;23.576;2022-07-23T06:32:49;96466.52;;;23.68;39.34
61357;BME280;47227;46.752;23.576;2022-07-23T06:35:39;96469.80;;;23.84;39.20
61357;BME280;47227;46.752;23.576;2022-07-23T06:38:08;96470.48;;;23.97;39.19
61357;BME280;47227;46.752;23.576;2022-07-23T06:40:36;96467.59;;;24.06;38.75
61357;BME280;47227;46.752;23.576;2022-07-23T06:43:07;96466.42;;;24.14;38.54
61357;BME280;47227;46.752;23.576;2022-07-23T06:45:37;96463.64;;;24.27;38.48
61357;BME280;47227;46.752;23.576;2022-07-23T06:48:06;96458.47;;;24.41;38.28
61357;BME280;47227;46.752;23.576;2022-07-23T06:50:34;96460.73;;;24.56;38.09
61357;BME280;47227;46.752;23.576;2022-07-23T06:53:06;96458.61;;;24.69;37.92
61357;BME280;47227;46.752;23.576;2022-07-23T06:55:35;96456.38;;;24.80;37.78
61357;BME280;47227;46.752;23.576;2022-07-23T06:58:06;96459.02;;;24.89;37.76
61357;BME280;47227;46.752;23.576;2022-07-23T07:00:37;96463.17;;;24.96;37.45
61357;BME280;47227;46.752;23.576;2022-07-23T07:03:08;96458.88;;;25.04;37.63
61357;BME280;47227;46.752;23.576;2022-07-23T07:05:37;96462.64;;;25.13;37.46
61357;BME280;47227;46.752;23.576;2022-07-23T07:08:05;96463.09;;;25.25;37.34
61357;BME280;47227;46.752;23.576;2022-07-23T07:10:39;96462.89;;;25.36;37.06
61357;BME280;47227;46.752;23.576;2022-07-23T07:13:08;96465.50;;;25.49;36.91
61357;BME280;47227;46.752;23.576;2022-07-23T07:15:37;96466.04;;;25.60;36.56
61357;BME280;47227;46.752;23.576;2022-07-23T07:18:05;96467.60;;;25.69;36.56
61357;BME280;47227;46.752;23.576;2022-07-23T07:20:34;96465.81;;;25.79;36.37
61357;BME280;47227;46.752;23.576;2022-07-23T07:23:03;96466.58;;;25.84;35.93
61357;BME280;47227;46.752;23.576;2022-07-23T07:25:33;96463.00;;;25.85;35.80
61357;BME280;47227;46.752;23.576;2022-07-23T07:28:03;96462.52;;;25.92;35.98
61357;BME280;47227;46.752;23.576;2022-07-23T07:30:31;96463.14;;;25.98;36.23
61357;BME280;47227;46.752;23.576;2022-07-23T07:33:01;96466.80;;;26.08;36.15
61357;BME280;47227;46.752;23.576;2022-07-23T07:35:30;96465.34;;;26.08;35.98
61357;BME280;47227;46.752;23.576;2022-07-23T07:38:00;96466.17;;;26.17;36.20
61357;BME280;47227;46.752;23.576;2022-07-23T07:40:29;96464.71;;;26.25;36.50
61357;BME280;47227;46.752;23.576;2022-07-23T07:43:01;96466.09;;;26.31;36.69
61357;BME280;47227;46.752;23.576;2022-07-23T07:45:31;96462.95;;;26.43;36.48
61357;BME280;47227;46.752;23.576;2022-07-23T07:48:00;96460.40;;;26.54;36.39
61357;BME280;47227;46.752;23.576;2022-07-23T07:50:28;96461.98;;;26.68;36.38
61357;BME280;47227;46.752;23.576;2022-07-23T07:52:58;96465.95;;;26.80;36.15
61357;BME280;47227;46.752;23.576;2022-07-23T07:55:26;96464.70;;;26.92;35.84
61357;BME280;47227;46.752;23.576;2022-07-23T07:57:58;96464.59;;;27.03;35.72
61357;BME280;47227;46.752;23.576;2022-07-23T08:00:30;96465.23;;;27.17;35.48
61357;BME280;47227;46.752;23.576;2022-07-23T08:02:59;96467.96;;;27.29;35.22
61357;BME280;47227;46.752;23.576;2022-07-23T08:05:31;96469.36;;;27.37;34.73
61357;BME280;47227;46.752;23.576;2022-07-23T08:08:01;96474.02;;;27.46;34.68
61357;BME280;47227;46.752;23.576;2022-07-23T08:10:36;96474.30;;;27.55;34.62
61357;BME280;47227;46.752;23.576;2022-07-23T08:13:04;96472.20;;;27.65;34.56
61357;BME280;47227;46.752;23.576;2022-07-23T08:15:34;96472.42;;;27.78;34.52
61357;BME280;47227;46.752;23.576;2022-07-23T08:18:03;96474.44;;;27.94;34.47
61357;BME280;47227;46.752;23.576;2022-07-23T08:20:32;96470.18;;;28.10;34.45
61357;BME280;47227;46.752;23.576;2022-07-23T08:23:05;96470.73;;;28.26;34.17
61357;BME280;47227;46.752;23.576;2022-07-23T08:25:38;96474.70;;;28.37;33.70
61357;BME280;47227;46.752;23.576;2022-07-23T08:28:10;96469.54;;;28.50;33.97
61357;BME280;47227;46.752;23.576;2022-07-23T08:30:40;96471.22;;;28.66;33.75
61357;BME280;47227;46.752;23.576;2022-07-23T08:33:11;96470.11;;;28.83;33.49
61357;BME280;47227;46.752;23.576;2022-07-23T08:35:58;96472.62;;;29.00;33.23
61357;BME280;47227;46.752;23.576;2022-07-23T08:38:27;96478.08;;;29.16;33.15
61357;BME280;47227;46.752;23.576;2022-07-23T08:40:57;96472.70;;;29.30;32.97
61357;BME280;47227;46.752;23.576;2022-07-23T08:43:31;96465.02;;;29.42;32.56
61357;BME280;47227;46.752;23.576;2022-07-23T08:46:03;96463.04;;;29.57;32.54
61357;BME280;47227;46.752;23.576;2022-07-23T08:48:34;96461.40;;;29.72;32.42
61357;BME280;47227;46.752;23.576;2022-07-23T08:51:07;96455.52;;;29.84;31.49
61357;BME280;47227;46.752;23.576;2022-07-23T08:53:37;96453.03;;;29.89;31.18
61357;BME280;47227;46.752;23.576;2022-07-23T08:56:10;96449.48;;;30.02;31.42
61357;BME280;47227;46.752;23.576;2022-07-23T08:58:38;96451.60;;;30.14;31.47
61357;BME280;47227;46.752;23.576;2022-07-23T09:01:08;96453.49;;;30.30;31.39
61357;BME280;47227;46.752;23.576;2022-07-23T09:03:37;96449.77;;;30.43;30.82
61357;BME280;47227;46.752;23.576;2022-07-23T09:06:07;96450.11;;;30.39;30.62
61357;BME280;47227;46.752;23.576;2022-07-23T09:08:39;96449.52;;;30.51;30.64
61357;BME280;47227;46.752;23.576;2022-07-23T09:11:10;96443.46;;;30.66;30.74
61357;BME280;47227;46.752;23.576;2022-07-23T09:13:42;96439.91;;;30.76;30.23
61357;BME280;47227;46.752;23.576;2022-07-23T09:16:34;96438.02;;;30.80;30.21
61357;BME280;47227;46.752;23.576;2022-07-23T09:19:06;96440.48;;;30.98;30.13
61357;BME280;47227;46.752;23.576;2022-07-23T09:21:38;96440.34;;;31.23;29.72
61357;BME280;47227;46.752;23.576;2022-07-23T09:24:09;96442.73;;;31.48;29.72
61357;BME280;47227;46.752;23.576;2022-07-23T09:26:47;96443.09;;;31.73;29.35
61357;BME280;47227;46.752;23.576;2022-07-23T09:29:18;96440.23;;;31.94;28.68
61357;BME280;47227;46.752;23.576;2022-07-23T09:31:53;96443.70;;;32.05;27.54
61357;BME280;47227;46.752;23.576;2022-07-23T09:34:30;96442.22;;;32.01;27.12
61357;BME280;47227;46.752;23.576;2022-07-23T09:37:17;96440.42;;;32.01;27.48
61357;BME280;47227;46.752;23.576;2022-07-23T09:39:47;96437.30;;;32.21;27.48
61357;BME280;47227;46.752;23.576;2022-07-23T09:42:20;96436.61;;;32.29;26.84
61357;BME280;47227;46.752;23.576;2022-07-23T09:44:51;96436.16;;;32.30;26.30
61357;BME280;47227;46.752;23.576;2022-07-23T09:47:21;96433.25;;;32.51;26.64
61357;BME280;47227;46.752;23.576;2022-07-23T09:50:09;96429.30;;;32.57;26.43
61357;BME280;47227;46.752;23.576;2022-07-23T09:52:47;96431.63;;;32.53;26.48
61357;BME280;47227;46.752;23.576;2022-07-23T09:55:17;96429.23;;;32.62;26.32
61357;BME280;47227;46.752;23.576;2022-07-23T09:57:46;96422.70;;;32.84;25.66
61357;BME280;47227;46.752;23.576;2022-07-23T10:00:18;96422.30;;;33.09;26.12
61357;BME280;47227;46.752;23.576;2022-07-23T10:02:49;96416.35;;;33.39;25.56
61357;BME280;47227;46.752;23.576;2022-07-23T10:05:38;96410.10;;;33.71;25.27
61357;BME280;47227;46.752;23.576;2022-07-23T10:08:30;96406.13;;;33.77;23.64
61357;BME280;47227;46.752;23.576;2022-07-23T10:11:17;96400.38;;;33.74;23.36
61357;BME280;47227;46.752;23.576;2022-07-23T10:14:02;96399.86;;;33.85;22.92
61357;BME280;47227;46.752;23.576;2022-07-23T10:16:46;96397.40;;;34.11;22.67
61357;BME280;47227;46.752;23.576;2022-07-23T10:19:15;96398.16;;;34.37;23.16
61357;BME280;47227;46.752;23.576;2022-07-23T10:21:49;96394.86;;;34.62;22.74
61357;BME280;47227;46.752;23.576;2022-07-23T10:24:40;96396.08;;;34.85;21.82
61357;BME280;47227;46.752;23.576;2022-07-23T10:27:36;96391.09;;;35.02;20.89
61357;BME280;47227;46.752;23.576;2022-07-23T10:30:19;96388.16;;;35.08;20.75
61357;BME280;47227;46.752;23.576;2022-07-23T10:33:09;96385.16;;;35.21;21.24
61357;BME280;47227;46.752;23.576;2022-07-23T10:38:51;96384.60;;;35.75;20.00
61357;BME280;47227;46.752;23.576;2022-07-23T10:41:34;96383.27;;;35.70;19.19
61357;BME280;47227;46.752;23.576;2022-07-23T10:44:11;96380.14;;;35.57;19.70
61357;BME280;47227;46.752;23.576;2022-07-23T10:47:00;96373.30;;;35.74;19.30
61357;BME280;47227;46.752;23.576;2022-07-23T10:49:46;96373.90;;;35.88;19.19
61357;BME280;47227;46.752;23.576;2022-07-23T10:52:18;96369.82;;;36.02;19.04
61357;BME280;47227;46.752;23.576;2022-07-23T10:54:53;96373.63;;;36.25;18.81
61357;BME280;47227;46.752;23.576;2022-07-23T10:57:23;96370.46;;;36.53;18.39
61357;BME280;47227;46.752;23.576;2022-07-23T11:00:09;96367.31;;;36.65;17.81
61357;BME280;47227;46.752;23.576;2022-07-23T11:02:41;96367.58;;;36.95;17.70
61357;BME280;47227;46.752;23.576;2022-07-23T11:05:14;96363.83;;;37.25;17.57
61357;BME280;47227;46.752;23.576;2022-07-23T11:08:11;96362.73;;;37.56;17.64
61357;BME280;47227;46.752;23.576;2022-07-23T11:10:45;96359.09;;;37.55;17.20
61357;BME280;47227;46.752;23.576;2022-07-23T11:13:26;96356.48;;;37.75;17.29
61357;BME280;47227;46.752;23.576;2022-07-23T11:16:11;96349.21;;;37.78;16.57
61357;BME280;47227;46.752;23.576;2022-07-23T11:18:58;96347.52;;;37.91;16.01
61357;BME280;47227;46.752;23.576;2022-07-23T11:21:40;96346.21;;;38.35;16.32
61357;BME280;47227;46.752;23.576;2022-07-23T11:24:12;96341.89;;;38.86;16.07
61357;BME280;47227;46.752;23.576;2022-07-23T11:26:48;96339.41;;;39.32;15.56
61357;BME280;47227;46.752;23.576;2022-07-23T11:29:38;96339.46;;;39.63;15.22
61357;BME280;47227;46.752;23.576;2022-07-23T11:32:20;96335.65;;;39.94;14.63
61357;BME280;47227;46.752;23.576;2022-07-23T11:34:52;96328.36;;;40.24;14.58
61357;BME280;47227;46.752;23.576;2022-07-23T11:37:37;96325.63;;;40.60;14.69
61357;BME280;47227;46.752;23.576;2022-07-23T11:40:10;96329.61;;;40.92;13.94
61357;BME280;47227;46.752;23.576;2022-07-23T11:42:59;96328.34;;;41.11;13.69
61357;BME280;47227;46.752;23.576;2022-07-23T11:45:53;96330.23;;;41.29;13.23
61357;BME280;47227;46.752;23.576;2022-07-23T11:48:25;96328.65;;;41.63;13.34
61357;BME280;47227;46.752;23.576;2022-07-23T11:50:55;96326.67;;;41.98;13.10
61357;BME280;47227;46.752;23.576;2022-07-23T11:53:26;96328.70;;;42.17;12.95
61357;BME280;47227;46.752;23.576;2022-07-23T11:56:05;96318.36;;;41.80;12.72
61357;BME280;47227;46.752;23.576;2022-07-23T11:58:34;96317.88;;;41.77;12.72
61357;BME280;47227;46.752;23.576;2022-07-23T12:01:04;96316.94;;;41.92;12.81
61357;BME280;47227;46.752;23.576;2022-07-23T12:03:32;96313.48;;;42.00;12.38
61357;BME280;47227;46.752;23.576;2022-07-23T12:06:00;96310.15;;;42.12;12.49
61357;BME280;47227;46.752;23.576;2022-07-23T12:08:29;96304.01;;;42.40;12.71
61357;BME280;47227;46.752;23.576;2022-07-23T12:10:57;96306.65;;;42.80;12.08
61357;BME280;47227;46.752;23.576;2022-07-23T12:13:26;96305.91;;;42.75;11.90
61357;BME280;47227;46.752;23.576;2022-07-23T12:15:57;96298.98;;;42.41;12.24
61357;BME280;47227;46.752;23.576;2022-07-23T12:18:27;96293.80;;;42.41;12.29
61357;BME280;47227;46.752;23.576;2022-07-23T12:20:57;96294.33;;;42.51;12.40
61357;BME280;47227;46.752;23.576;2022-07-23T12:23:31;96289.73;;;42.72;11.99
61357;BME280;47227;46.752;23.576;2022-07-23T12:26:01;96288.63;;;42.46;12.08
61357;BME280;47227;46.752;23.576;2022-07-23T12:28:32;96281.34;;;42.10;12.64
61357;BME280;47227;46.752;23.576;2022-07-23T12:31:01;96282.05;;;41.74;12.68
61357;BME280;47227;46.752;23.576;2022-07-23T12:33:32;96276.58;;;41.14;13.15
61357;BME280;47227;46.752;23.576;2022-07-23T12:36:04;96270.71;;;40.29;13.79
61357;BME280;47227;46.752;23.576;2022-07-23T12:38:47;96268.44;;;40.08;14.02
61357;BME280;47227;46.752;23.576;2022-07-23T12:41:17;96271.05;;;40.00;14.29
61357;BME280;47227;46.752;23.576;2022-07-23T12:43:46;96267.25;;;39.88;14.54
61357;BME280;47227;46.752;23.576;2022-07-23T12:46:19;96260.56;;;39.96;14.26
61357;BME280;47227;46.752;23.576;2022-07-23T12:48:52;96258.20;;;40.37;14.44
61357;BME280;47227;46.752;23.576;2022-07-23T12:51:23;96258.63;;;40.62;14.29
61357;BME280;47227;46.752;23.576;2022-07-23T12:53:57;96257.86;;;40.86;13.77
61357;BME280;47227;46.752;23.576;2022-07-23T12:56:29;96257.89;;;41.16;13.69
61357;BME280;47227;46.752;23.576;2022-07-23T12:59:06;96256.51;;;41.26;13.67
61357;BME280;47227;46.752;23.576;2022-07-23T13:01:38;96254.08;;;41.55;13.57
61357;BME280;47227;46.752;23.576;2022-07-23T13:04:14;96249.00;;;42.00;13.15
61357;BME280;47227;46.752;23.576;2022-07-23T13:06:50;96247.82;;;42.59;12.64
61357;BME280;47227;46.752;23.576;2022-07-23T13:09:21;96248.80;;;42.99;12.66
61357;BME280;47227;46.752;23.576;2022-07-23T13:11:53;96243.46;;;43.34;12.14
61357;BME280;47227;46.752;23.576;2022-07-23T13:14:25;96238.45;;;42.84;12.30
61357;BME280;47227;46.752;23.576;2022-07-23T13:16:55;96240.27;;;42.41;12.34
61357;BME280;47227;46.752;23.576;2022-07-23T13:19:26;96238.95;;;42.24;12.51